Terminal Aerodrome Forecast
Issued by NWS

Home | Current Version | Previous Version | Text Only | Print | Product List | Glossary On
Versions: 1 2 3 4 5 6 7 8 9 10 11 12 13 14 15 16 17 18 19 20 21 22 23 24 25 26 27 28 29 30 31 32 33 34 35 36 37 38 39 40 41
000
FTPA31 PHFO 181400 AAA
TAFITO
TAF AMD
PHTO 181454Z 1815/1912 23006KT P6SM VCSH SCT022 BKN040
      TEMPO 1815/1819 -SHRA BKN020
     FM182200 08008KT P6SM SCT030 BKN050
     FM190200 VRB03KT P6SM VCSH SCT030 BKN040
     FM190600 23006KT P6SM VCSH SCT022 BKN040=

USA.gov is the U.S. government's official web portal to all federal, state and local government web resources and services.